Wiscotta, Iowa
Current Conditions -  °F | °C
As of 9:55 PM on Wednesday 22 Oct 2014 (Local Time) from KPRO Reporting Station
Clear Clear  
Wind Chill: 57°   Ceiling: Unl
Heat Index: 57°   Visibility: 10mi
Dew Point: 47°   Wind: 10mph
Humidity: 71%   Direction: 160°SSE
Pressure: 30.09"   Gusts: NA
Location:  41.5743°N, 94.1829°W
Report Text: KPRO 230255Z AUTO 16009KT 10SM CLR 14/09 A3009 RMK AO2 T01380086
Loading
Personal Weather Stations






























Interactive Weather Map
Tropical Storm Tracking
New forecast layout! Learn more

10-Day Weather Forecast

Advertisements
Track Severe Weather on mobile